Beauval, Canada
Current Conditions -  °F | °C
As of 4:00 PM on Monday 26 Jan 2015 (Local Time) from CYVT Reporting Station
Broken Clouds Broken Clouds  
Wind Chill: 35°   Ceiling: 24000
Heat Index: 39°   Visibility: 15mi
Dew Point: 28°   Wind: 6mph
Humidity: 65%   Direction: 240°WSW
Pressure: 29.7"   Gusts: NA
Location:  55.15°N, 107.62°W
Report Text: CYVT 262200Z 24005KT 15SM FEW180 BKN240 04/M02 A2970 RMK AC2CI5 SLP080
Loading
Personal Weather Stations






























Interactive Weather Map New forecast layout! Learn more

10-Day Weather Forecast

Advertisements
Track Severe Weather on mobile